Time;durP1;ratioP1;P1;durP2;ratioP2;P2;SDS_P1;SDS_P2;PMS_P1;PMS_P2;Temp;Humidity;BMP_temperature;BMP_pressure;BME280_temperature;BME280_humidity;BME280_pressure;Samples;Min_cycle;Max_cycle;Signal;HPM_P1;HPM_P2
2023/03/31 00:02:24;;;;;;;;;;;9.20;68.80;;;;;;5102619;27;88757;-40
2023/03/31 00:04:53;;;;;;;;;;;9.20;68.80;;;;;;5104914;27;88421;-40
2023/03/31 00:07:20;;;;;;;;;;;9.20;68.80;;;;;;5102557;27;87811;-40
2023/03/31 00:09:47;;;;;;;;;;;9.20;68.80;;;;;;5098350;27;88566;-40
2023/03/31 00:12:13;;;;;;;;;;;9.20;68.80;;;;;;5102427;27;87039;-40
2023/03/31 00:14:39;;;;;;;;;;;9.20;68.80;;;;;;5102363;27;88799;-40
2023/03/31 00:17:05;;;;;;;;;;;9.20;68.80;;;;;;5102813;27;88652;-40
2023/03/31 00:19:32;;;;;;;;;;;9.20;68.90;;;;;;5102024;27;86983;-40
2023/03/31 00:22:00;;;;;;;;;;;9.20;68.80;;;;;;5102602;27;87445;-40
2023/03/31 00:24:26;;;;;;;;;;;9.20;68.80;;;;;;5101535;27;90438;-40
2023/03/31 00:26:52;;;;;;;;;;;9.10;68.80;;;;;;5105175;27;86895;-40
2023/03/31 00:29:17;;;;;;;;;;;9.20;68.80;;;;;;5102460;27;89407;-40
2023/03/31 00:31:43;;;;;;;;;;;9.20;68.80;;;;;;5102418;27;87487;-40
2023/03/31 00:34:08;;;;;;;;;;;9.20;68.70;;;;;;5102266;27;89030;-40
2023/03/31 00:36:35;;;;;;;;;;;9.20;68.70;;;;;;5101901;27;89710;-40
2023/03/31 00:39:08;;;;;;;;;;;9.20;68.80;;;;;;5102397;27;87090;-40
2023/03/31 00:41:34;;;;;;;;;;;9.20;68.80;;;;;;5102748;27;88979;-40
2023/03/31 00:44:08;;;;;;;;;;;9.20;68.80;;;;;;5101893;27;89238;-40
2023/03/31 00:46:52;;;;;;;;;;;9.20;68.70;;;;;;5102419;27;87559;-40
2023/03/31 00:49:44;;;;;;;;;;;9.20;68.70;;;;;;5097495;27;88268;-40
2023/03/31 00:52:23;;;;;;;;;;;9.20;68.70;;;;;;5092164;27;87014;-40
2023/03/31 00:54:53;;;;;;;;;;;9.10;68.80;;;;;;5102027;27;87035;-40
2023/03/31 00:57:19;;;;;;;;;;;9.10;68.80;;;;;;5097930;27;89283;-40
2023/03/31 00:59:52;;;;;;;;;;;9.10;68.80;;;;;;5102053;27;87183;-40
2023/03/31 01:02:24;;;;;;;;;;;9.20;68.80;;;;;;5101513;27;90150;-40
2023/03/31 01:04:54;;;;;;;;;;;9.10;68.70;;;;;;5101428;27;89780;-40
2023/03/31 01:07:24;;;;;;;;;;;9.20;68.80;;;;;;5102044;27;86342;-40
2023/03/31 01:09:53;;;;;;;;;;;9.20;68.80;;;;;;5104409;27;88219;-40
2023/03/31 01:12:19;;;;;;;;;;;9.20;68.60;;;;;;5101914;27;87065;-40
2023/03/31 01:14:45;;;;;;;;;;;9.10;68.80;;;;;;5100907;27;88885;-40
2023/03/31 01:17:10;;;;;;;;;;;9.10;68.60;;;;;;5104182;27;89356;-40
2023/03/31 01:19:45;;;;;;;;;;;9.20;68.70;;;;;;5105028;27;87078;-40
2023/03/31 01:22:10;;;;;;;;;;;9.10;69.30;;;;;;5105197;27;88562;-40
2023/03/31 01:25:09;;;;;;;;;;;9.10;68.60;;;;;;5104531;27;89693;-40
2023/03/31 01:28:03;;;;;;;;;;;9.20;68.70;;;;;;5069227;27;87498;-40
2023/03/31 01:30:51;;;;;;;;;;;9.20;68.60;;;;;;5090483;27;88667;-41
2023/03/31 01:33:20;;;;;;;;;;;9.10;68.60;;;;;;5101889;27;87296;-40
2023/03/31 01:35:57;;;;;;;;;;;9.10;68.60;;;;;;5104933;27;88462;-40
2023/03/31 01:38:32;;;;;;;;;;;9.20;68.70;;;;;;5101224;27;89426;-40
2023/03/31 01:41:00;;;;;;;;;;;9.10;68.70;;;;;;5104420;27;88144;-40
2023/03/31 01:43:32;;;;;;;;;;;9.10;68.50;;;;;;5104934;27;90322;-40
2023/03/31 01:46:03;;;;;;;;;;;9.10;68.70;;;;;;5104506;27;89435;-40
2023/03/31 01:48:38;;;;;;;;;;;9.10;68.60;;;;;;5104749;27;87445;-40
2023/03/31 01:51:07;;;;;;;;;;;9.20;68.60;;;;;;5101574;27;88751;-40
2023/03/31 01:53:47;;;;;;;;;;;9.10;68.60;;;;;;5104181;27;89405;-40
2023/03/31 01:56:18;;;;;;;;;;;9.10;68.50;;;;;;5105098;27;87137;-40
2023/03/31 01:59:07;;;;;;;;;;;9.10;68.60;;;;;;5104536;27;88727;-40
2023/03/31 02:01:36;;;;;;;;;;;9.10;68.60;;;;;;5102861;27;87086;-40
2023/03/31 02:04:06;;;;;;;;;;;9.20;68.60;;;;;;5104383;27;88913;-40
2023/03/31 02:06:38;;;;;;;;;;;9.10;68.50;;;;;;5099838;27;90110;-40
2023/03/31 02:09:09;;;;;;;;;;;9.10;68.50;;;;;;5104759;27;87046;-40
2023/03/31 02:11:36;;;;;;;;;;;9.10;68.50;;;;;;5100415;27;88605;-39
2023/03/31 02:14:03;;;;;;;;;;;9.10;68.60;;;;;;5099391;27;88695;-40
2023/03/31 02:16:31;;;;;;;;;;;9.20;68.40;;;;;;5104441;27;86985;-40
2023/03/31 02:19:04;;;;;;;;;;;9.20;68.50;;;;;;5106660;27;88760;-40
2023/03/31 02:21:31;;;;;;;;;;;9.10;68.40;;;;;;5104248;27;86898;-40
2023/03/31 02:23:57;;;;;;;;;;;9.10;68.50;;;;;;5105056;27;87411;-40
2023/03/31 02:26:26;;;;;;;;;;;9.10;68.30;;;;;;5103544;27;89499;-40
2023/03/31 02:28:51;;;;;;;;;;;9.20;68.40;;;;;;5102910;27;87550;-40
2023/03/31 02:31:25;;;;;;;;;;;9.10;68.40;;;;;;5103229;27;89059;-40
2023/03/31 02:33:50;;;;;;;;;;;9.10;68.60;;;;;;5099855;27;89801;-40
2023/03/31 02:36:17;;;;;;;;;;;9.10;68.50;;;;;;5103981;27;87057;-40
2023/03/31 02:38:44;;;;;;;;;;;9.10;68.70;;;;;;5106721;27;88938;-40
2023/03/31 02:41:10;;;;;;;;;;;9.10;68.50;;;;;;5103560;27;87162;-40
2023/03/31 02:43:36;;;;;;;;;;;9.10;68.60;;;;;;5103748;27;88821;-40
2023/03/31 02:46:01;;;;;;;;;;;9.10;68.50;;;;;;5103548;27;89690;-40
2023/03/31 02:48:29;;;;;;;;;;;9.10;68.70;;;;;;5104302;27;86369;-40
2023/03/31 02:50:58;;;;;;;;;;;9.10;68.60;;;;;;5104011;27;88185;-40
2023/03/31 02:53:41;;;;;;;;;;;9.10;68.60;;;;;;5099698;27;88128;-40
2023/03/31 02:56:10;;;;;;;;;;;9.10;68.60;;;;;;5101106;27;87938;-40
2023/03/31 02:58:54;;;;;;;;;;;9.10;68.60;;;;;;5103990;27;89578;-40
2023/03/31 03:01:32;;;;;;;;;;;9.10;68.60;;;;;;5104266;27;88988;-40
2023/03/31 03:04:16;;;;;;;;;;;9.10;68.50;;;;;;5095910;27;88392;-40
2023/03/31 03:07:01;;;;;;;;;;;9.10;68.10;;;;;;5101755;27;91476;-40
2023/03/31 03:09:33;;;;;;;;;;;9.10;68.60;;;;;;5103655;27;87111;-40
2023/03/31 03:12:17;;;;;;;;;;;9.10;68.50;;;;;;5100118;27;87137;-40
2023/03/31 03:14:52;;;;;;;;;;;9.10;68.50;;;;;;5103444;27;88467;-40
2023/03/31 03:17:22;;;;;;;;;;;9.10;68.60;;;;;;5103616;27;87712;-40
2023/03/31 03:19:55;;;;;;;;;;;9.10;68.50;;;;;;5103437;27;88886;-40
2023/03/31 03:22:21;;;;;;;;;;;9.10;68.50;;;;;;5099224;27;88208;-40
2023/03/31 03:24:47;;;;;;;;;;;9.10;68.50;;;;;;5106438;27;87191;-40
2023/03/31 03:27:12;;;;;;;;;;;9.00;68.60;;;;;;5102360;27;89270;-40
2023/03/31 03:29:38;;;;;;;;;;;9.10;68.60;;;;;;5103048;27;87305;-40
2023/03/31 03:32:03;;;;;;;;;;;9.10;68.50;;;;;;5103102;27;89134;-40
2023/03/31 03:34:29;;;;;;;;;;;9.10;68.40;;;;;;5102833;27;88206;-40
2023/03/31 03:36:55;;;;;;;;;;;9.00;68.60;;;;;;5103098;27;88229;-40
2023/03/31 03:39:20;;;;;;;;;;;9.00;68.60;;;;;;5103100;27;88908;-40
2023/03/31 03:41:46;;;;;;;;;;;9.10;68.50;;;;;;5102546;27;88407;-40
2023/03/31 03:44:11;;;;;;;;;;;9.10;68.50;;;;;;5102934;27;87139;-40
2023/03/31 03:46:37;;;;;;;;;;;9.10;68.60;;;;;;5105115;27;88701;-40
2023/03/31 03:49:02;;;;;;;;;;;9.00;68.50;;;;;;5103003;27;87221;-40
2023/03/31 03:51:28;;;;;;;;;;;9.10;68.50;;;;;;5098935;27;89054;-40
2023/03/31 03:53:53;;;;;;;;;;;9.00;68.50;;;;;;5102388;27;89037;-40
2023/03/31 03:56:20;;;;;;;;;;;9.00;68.40;;;;;;5102920;27;87601;-40
2023/03/31 03:58:46;;;;;;;;;;;9.00;68.40;;;;;;5102648;27;88741;-40
2023/03/31 04:01:11;;;;;;;;;;;9.00;68.40;;;;;;5102925;27;88028;-40
2023/03/31 04:03:37;;;;;;;;;;;9.00;68.50;;;;;;5101954;27;86565;-40
2023/03/31 04:06:02;;;;;;;;;;;9.00;68.40;;;;;;5102809;27;88227;-40
2023/03/31 04:08:28;;;;;;;;;;;9.00;68.40;;;;;;5105698;27;88127;-40
2023/03/31 04:10:53;;;;;;;;;;;9.00;68.50;;;;;;5102059;27;88192;-40
2023/03/31 04:13:19;;;;;;;;;;;9.00;68.40;;;;;;5100149;27;91123;-40
2023/03/31 04:15:45;;;;;;;;;;;9.00;68.40;;;;;;5102460;27;87514;-40
2023/03/31 04:18:21;;;;;;;;;;;9.00;68.40;;;;;;5102778;27;87573;-40
2023/03/31 04:21:02;;;;;;;;;;;9.00;68.30;;;;;;5099294;27;87917;-40
2023/03/31 04:23:41;;;;;;;;;;;9.00;68.30;;;;;;5102456;27;86955;-40
2023/03/31 04:26:09;;;;;;;;;;;9.00;68.30;;;;;;5102408;27;88952;-40
2023/03/31 04:28:35;;;;;;;;;;;9.00;68.20;;;;;;5102089;27;88934;-40
2023/03/31 04:31:02;;;;;;;;;;;9.00;68.30;;;;;;5105112;27;87094;-40
2023/03/31 04:33:28;;;;;;;;;;;9.00;68.20;;;;;;5101722;27;89567;-40
2023/03/31 04:35:53;;;;;;;;;;;9.00;68.30;;;;;;5102101;27;88578;-40
2023/03/31 04:38:20;;;;;;;;;;;9.00;68.10;;;;;;5102321;27;89824;-40
2023/03/31 04:40:47;;;;;;;;;;;8.90;68.20;;;;;;5098553;27;88064;-40
2023/03/31 04:43:12;;;;;;;;;;;9.00;68.20;;;;;;5101831;27;87395;-40
2023/03/31 04:45:38;;;;;;;;;;;9.00;68.80;;;;;;5102200;27;87374;-40
2023/03/31 04:48:03;;;;;;;;;;;9.00;68.20;;;;;;5101309;27;89219;-40
2023/03/31 04:50:29;;;;;;;;;;;9.00;68.10;;;;;;5104062;27;87148;-40
2023/03/31 04:52:54;;;;;;;;;;;9.00;68.10;;;;;;5105729;27;88356;-39
2023/03/31 04:55:20;;;;;;;;;;;8.90;68.10;;;;;;5105732;27;87168;-40
2023/03/31 04:57:45;;;;;;;;;;;8.90;68.00;;;;;;5105645;27;88800;-40
2023/03/31 05:00:11;;;;;;;;;;;9.00;68.10;;;;;;5100993;27;89349;-40
2023/03/31 05:02:37;;;;;;;;;;;8.90;68.00;;;;;;5105713;27;87100;-40
2023/03/31 05:05:03;;;;;;;;;;;8.90;68.10;;;;;;5105718;27;88623;-40
2023/03/31 05:07:28;;;;;;;;;;;9.00;68.10;;;;;;5105129;27;89290;-40
2023/03/31 05:09:54;;;;;;;;;;;9.00;68.10;;;;;;5105330;27;87160;-40
2023/03/31 05:12:20;;;;;;;;;;;9.00;68.10;;;;;;5108307;27;88640;-40
2023/03/31 05:14:45;;;;;;;;;;;9.00;68.10;;;;;;5104991;27;87473;-40
2023/03/31 05:17:11;;;;;;;;;;;9.00;68.10;;;;;;5106189;27;88768;-40
2023/03/31 05:19:36;;;;;;;;;;;9.00;68.10;;;;;;5101408;27;88060;-40
2023/03/31 05:22:02;;;;;;;;;;;8.90;68.00;;;;;;5103966;27;87017;-40
2023/03/31 05:24:28;;;;;;;;;;;8.90;68.00;;;;;;5104425;27;88982;-40
2023/03/31 05:26:56;;;;;;;;;;;8.90;68.00;;;;;;5104431;27;87910;-40
2023/03/31 05:29:22;;;;;;;;;;;9.00;68.10;;;;;;5105400;27;87248;-40
2023/03/31 05:31:47;;;;;;;;;;;9.00;68.10;;;;;;5104917;27;88777;-40
2023/03/31 05:34:13;;;;;;;;;;;9.00;68.10;;;;;;5107392;27;88276;-40
2023/03/31 05:36:39;;;;;;;;;;;9.00;68.10;;;;;;5105099;27;88835;-40
2023/03/31 05:39:04;;;;;;;;;;;9.00;68.20;;;;;;5104206;27;89618;-40
2023/03/31 05:41:30;;;;;;;;;;;9.00;68.10;;;;;;5105383;27;86402;-40
2023/03/31 05:43:55;;;;;;;;;;;9.00;68.10;;;;;;5104551;27;88546;-40
2023/03/31 05:46:21;;;;;;;;;;;9.00;68.20;;;;;;5104748;27;89710;-40
2023/03/31 05:48:46;;;;;;;;;;;9.00;68.10;;;;;;5104256;27;88052;-40
2023/03/31 05:51:12;;;;;;;;;;;9.00;68.10;;;;;;5104772;27;90589;-40
2023/03/31 05:53:37;;;;;;;;;;;9.00;68.00;;;;;;5104776;27;88108;-40
2023/03/31 05:56:04;;;;;;;;;;;9.00;68.10;;;;;;5107397;27;87151;-40
2023/03/31 05:58:30;;;;;;;;;;;9.00;68.00;;;;;;5104605;27;89666;-40
2023/03/31 06:01:18;;;;;;;;;;;9.00;68.00;;;;;;5104701;27;87460;-40
2023/03/31 06:03:44;;;;;;;;;;;9.00;68.20;;;;;;5100800;27;88735;-40
2023/03/31 06:06:11;;;;;;;;;;;9.00;68.00;;;;;;5104563;27;88785;-40
2023/03/31 06:08:37;;;;;;;;;;;9.00;68.20;;;;;;5104851;27;87088;-40
2023/03/31 06:11:04;;;;;;;;;;;9.00;68.00;;;;;;5105174;27;87152;-40
2023/03/31 06:13:29;;;;;;;;;;;9.00;68.10;;;;;;5103359;27;89554;-40
2023/03/31 06:15:56;;;;;;;;;;;9.00;68.10;;;;;;5104548;27;87186;-40
2023/03/31 06:18:21;;;;;;;;;;;9.00;68.10;;;;;;5107191;27;89013;-40
2023/03/31 06:20:47;;;;;;;;;;;9.00;68.10;;;;;;5104164;27;87209;-40
2023/03/31 06:23:12;;;;;;;;;;;9.00;68.10;;;;;;5104272;27;89076;-40
2023/03/31 06:25:38;;;;;;;;;;;9.00;68.00;;;;;;5103910;27;89262;-40
2023/03/31 06:28:05;;;;;;;;;;;9.00;68.10;;;;;;5104212;27;87638;-40
2023/03/31 06:30:30;;;;;;;;;;;9.00;68.00;;;;;;5105071;27;86804;-40
2023/03/31 06:32:56;;;;;;;;;;;9.00;68.20;;;;;;5103850;27;90069;-40
2023/03/31 06:35:21;;;;;;;;;;;9.00;68.10;;;;;;5104174;27;87363;-40
2023/03/31 06:37:47;;;;;;;;;;;9.00;68.10;;;;;;5103481;27;88873;-40
2023/03/31 06:40:13;;;;;;;;;;;9.00;68.10;;;;;;5106937;27;89375;-40
2023/03/31 06:42:38;;;;;;;;;;;9.00;68.20;;;;;;5104501;27;87535;-40
2023/03/31 06:45:04;;;;;;;;;;;9.00;68.30;;;;;;5099536;27;89129;-40
2023/03/31 06:47:29;;;;;;;;;;;9.10;68.30;;;;;;5104164;27;87105;-40
2023/03/31 06:49:55;;;;;;;;;;;9.00;68.20;;;;;;5103825;27;88721;-40
2023/03/31 06:52:20;;;;;;;;;;;9.00;68.30;;;;;;5103265;27;89504;-40
2023/03/31 06:54:46;;;;;;;;;;;9.00;68.30;;;;;;5104282;27;86386;-40
2023/03/31 06:57:11;;;;;;;;;;;9.00;68.20;;;;;;5099842;27;88177;-40
2023/03/31 06:59:37;;;;;;;;;;;9.00;68.30;;;;;;5106539;27;88136;-40
2023/03/31 07:02:02;;;;;;;;;;;9.10;68.10;;;;;;5103096;27;87948;-40
2023/03/31 07:04:28;;;;;;;;;;;9.10;68.30;;;;;;5103011;27;89458;-40
2023/03/31 07:06:53;;;;;;;;;;;9.10;68.20;;;;;;5103120;27;87098;-40
2023/03/31 07:09:22;;;;;;;;;;;9.10;68.00;;;;;;5103248;27;88810;-39
2023/03/31 07:11:47;;;;;;;;;;;9.10;68.20;;;;;;5103061;27;89529;-40
2023/03/31 07:14:13;;;;;;;;;;;9.10;68.20;;;;;;5101834;27;87388;-40
2023/03/31 07:16:38;;;;;;;;;;;9.10;68.10;;;;;;5103609;27;88975;-40
2023/03/31 07:19:05;;;;;;;;;;;9.10;68.10;;;;;;5103957;27;88920;-40
2023/03/31 07:21:30;;;;;;;;;;;9.10;68.10;;;;;;5106477;27;87199;-40
2023/03/31 07:23:56;;;;;;;;;;;9.10;68.10;;;;;;5103399;27;88003;-40
2023/03/31 07:26:22;;;;;;;;;;;9.10;68.00;;;;;;5102602;27;88024;-40
2023/03/31 07:28:48;;;;;;;;;;;9.10;68.10;;;;;;5102888;27;89814;-40
2023/03/31 07:31:13;;;;;;;;;;;9.10;68.00;;;;;;5102747;27;89271;-40
2023/03/31 07:33:39;;;;;;;;;;;9.20;68.20;;;;;;5103446;27;87159;-40
2023/03/31 07:36:05;;;;;;;;;;;9.20;68.20;;;;;;5102868;27;88915;-40
2023/03/31 07:38:31;;;;;;;;;;;9.10;68.10;;;;;;5102530;27;89805;-40
2023/03/31 07:40:56;;;;;;;;;;;9.20;68.10;;;;;;5103235;27;87526;-40
2023/03/31 07:43:22;;;;;;;;;;;9.20;68.10;;;;;;5105645;27;88719;-40
2023/03/31 07:45:47;;;;;;;;;;;9.10;68.00;;;;;;5102907;27;87170;-40
2023/03/31 07:48:13;;;;;;;;;;;9.20;68.10;;;;;;5102825;27;88648;-40
2023/03/31 07:50:39;;;;;;;;;;;9.20;68.10;;;;;;5101626;27;90506;-40
2023/03/31 07:53:04;;;;;;;;;;;9.20;67.90;;;;;;5103021;27;87552;-40
2023/03/31 07:55:30;;;;;;;;;;;9.20;67.90;;;;;;5098144;27;88718;-40
2023/03/31 07:57:55;;;;;;;;;;;9.20;67.80;;;;;;5102100;27;88655;-40
2023/03/31 08:00:21;;;;;;;;;;;9.20;67.90;;;;;;5098467;27;87787;-40
2023/03/31 08:02:46;;;;;;;;;;;9.30;68.00;;;;;;5102604;27;87290;-40
2023/03/31 08:05:13;;;;;;;;;;;9.30;68.10;;;;;;5104497;27;89619;-40
2023/03/31 08:07:40;;;;;;;;;;;9.30;68.20;;;;;;5102557;27;87893;-40
2023/03/31 08:10:07;;;;;;;;;;;9.30;68.20;;;;;;5102038;27;89605;-40
2023/03/31 08:12:33;;;;;;;;;;;9.30;68.30;;;;;;5102681;27;87742;-40
2023/03/31 08:14:58;;;;;;;;;;;9.20;68.30;;;;;;5101517;27;88676;-40
2023/03/31 08:17:24;;;;;;;;;;;9.30;68.50;;;;;;5101841;27;88498;-40
2023/03/31 08:19:50;;;;;;;;;;;9.30;68.40;;;;;;5102309;27;87113;-40
2023/03/31 08:22:16;;;;;;;;;;;9.30;68.40;;;;;;5102426;27;86986;-40
2023/03/31 08:24:42;;;;;;;;;;;9.30;68.40;;;;;;5102136;27;89288;-40
2023/03/31 08:27:07;;;;;;;;;;;9.30;68.50;;;;;;5107951;27;87195;-40
2023/03/31 08:29:33;;;;;;;;;;;9.30;68.50;;;;;;5105589;27;89253;-40
2023/03/31 08:31:58;;;;;;;;;;;9.30;68.60;;;;;;5106471;27;86899;-40
2023/03/31 08:34:24;;;;;;;;;;;9.30;68.70;;;;;;5106555;27;86969;-40
2023/03/31 08:36:50;;;;;;;;;;;9.30;68.70;;;;;;5105676;27;89537;-40
2023/03/31 08:39:15;;;;;;;;;;;9.30;68.60;;;;;;5105809;27;88482;-40
2023/03/31 08:41:41;;;;;;;;;;;9.40;68.70;;;;;;5105631;27;90374;-40
2023/03/31 08:44:11;;;;;;;;;;;9.30;68.70;;;;;;5105420;27;89839;-40
2023/03/31 08:46:37;;;;;;;;;;;9.30;68.80;;;;;;5102085;27;87101;-40
2023/03/31 08:49:03;;;;;;;;;;;9.30;68.80;;;;;;5108428;27;87630;-40
2023/03/31 08:51:46;;;;;;;;;;;9.30;68.90;;;;;;5105819;27;87107;-40
2023/03/31 08:54:15;;;;;;;;;;;9.30;68.90;;;;;;5102324;27;88633;-40
2023/03/31 08:56:43;;;;;;;;;;;9.30;68.90;;;;;;5106181;27;87447;-40
2023/03/31 08:59:20;;;;;;;;;;;9.40;68.90;;;;;;5105522;27;87393;-40
2023/03/31 09:01:49;;;;;;;;;;;9.40;68.90;;;;;;5101869;27;88855;-40
2023/03/31 09:04:27;;;;;;;;;;;9.40;68.80;;;;;;5104217;27;90296;-39
2023/03/31 09:06:58;;;;;;;;;;;9.40;68.80;;;;;;5101973;27;87345;-40
2023/03/31 09:09:24;;;;;;;;;;;9.40;68.80;;;;;;5108063;27;88810;-40
2023/03/31 09:11:50;;;;;;;;;;;9.50;68.90;;;;;;5105446;27;87241;-40
2023/03/31 09:14:37;;;;;;;;;;;9.50;69.00;;;;;;5105060;27;88697;-40
2023/03/31 09:17:17;;;;;;;;;;;9.40;69.10;;;;;;5103803;27;89430;-40
2023/03/31 09:19:42;;;;;;;;;;;9.50;69.10;;;;;;5102778;27;87048;-39
2023/03/31 09:22:14;;;;;;;;;;;9.50;69.00;;;;;;5105493;27;89005;-40
2023/03/31 09:24:46;;;;;;;;;;;9.50;69.10;;;;;;5104757;27;89077;-40
2023/03/31 09:27:13;;;;;;;;;;;9.60;69.20;;;;;;5105189;27;87539;-40
2023/03/31 09:29:42;;;;;;;;;;;9.60;69.20;;;;;;5104811;27;89049;-40
2023/03/31 09:32:16;;;;;;;;;;;9.50;69.20;;;;;;5107997;27;89463;-40
2023/03/31 09:34:43;;;;;;;;;;;9.50;69.30;;;;;;5102233;27;88953;-40
2023/03/31 09:37:09;;;;;;;;;;;9.60;69.40;;;;;;5104648;27;89331;-40
2023/03/31 09:39:35;;;;;;;;;;;9.50;69.30;;;;;;5105236;27;87005;-40
2023/03/31 09:42:01;;;;;;;;;;;9.60;69.40;;;;;;5105136;27;88371;-40
2023/03/31 09:44:38;;;;;;;;;;;9.60;69.20;;;;;;5104587;27;89320;-40
2023/03/31 09:47:06;;;;;;;;;;;9.60;69.20;;;;;;5105370;27;86488;-40
2023/03/31 09:49:35;;;;;;;;;;;9.70;69.30;;;;;;5105029;27;88152;-40
2023/03/31 09:52:25;;;;;;;;;;;9.60;69.20;;;;;;5104153;27;88297;-40
2023/03/31 09:54:52;;;;;;;;;;;9.70;69.30;;;;;;5106888;27;88098;-40
2023/03/31 09:57:23;;;;;;;;;;;9.70;69.30;;;;;;5104547;27;88472;-40
2023/03/31 09:59:51;;;;;;;;;;;9.70;69.20;;;;;;5104493;27;87067;-40
2023/03/31 10:02:17;;;;;;;;;;;9.80;69.30;;;;;;5104523;27;88570;-40
2023/03/31 10:04:44;;;;;;;;;;;9.70;69.10;;;;;;5103496;27;89531;-40
2023/03/31 10:07:10;;;;;;;;;;;9.80;69.40;;;;;;5104411;27;87111;-40
2023/03/31 10:09:36;;;;;;;;;;;9.80;69.30;;;;;;5104439;27;88937;-40
2023/03/31 10:12:05;;;;;;;;;;;9.80;69.20;;;;;;5104762;27;88260;-40
2023/03/31 10:14:50;;;;;;;;;;;9.80;69.30;;;;;;5104397;27;87057;-40
2023/03/31 10:17:20;;;;;;;;;;;9.80;69.40;;;;;;5100992;27;87385;-40
2023/03/31 10:19:56;;;;;;;;;;;9.80;69.40;;;;;;5103639;27;88425;-40
2023/03/31 10:22:21;;;;;;;;;;;9.90;69.30;;;;;;5104364;27;89995;-40
2023/03/31 10:24:48;;;;;;;;;;;9.90;69.20;;;;;;5104051;27;87962;-40
2023/03/31 10:27:25;;;;;;;;;;;9.90;69.30;;;;;;5104150;27;87139;-40
2023/03/31 10:29:55;;;;;;;;;;;9.80;69.30;;;;;;5101647;27;89020;-40
2023/03/31 10:32:21;;;;;;;;;;;9.90;69.30;;;;;;5103541;27;89323;-40
2023/03/31 10:34:47;;;;;;;;;;;9.90;69.40;;;;;;5104122;27;87206;-40
2023/03/31 10:37:16;;;;;;;;;;;9.90;69.40;;;;;;5100611;27;87778;-40
2023/03/31 10:39:42;;;;;;;;;;;9.90;69.30;;;;;;5102725;27;89397;-40
2023/03/31 10:42:07;;;;;;;;;;;10.00;69.40;;;;;;5104001;27;89049;-40
2023/03/31 10:44:37;;;;;;;;;;;10.00;69.40;;;;;;5103143;27;90283;-40
2023/03/31 10:47:04;;;;;;;;;;;10.00;69.20;;;;;;5104358;27;87100;-40
2023/03/31 10:49:35;;;;;;;;;;;10.00;69.30;;;;;;5102859;27;88672;-40
2023/03/31 10:52:01;;;;;;;;;;;10.00;69.30;;;;;;5103271;27;87834;-40
2023/03/31 10:54:27;;;;;;;;;;;10.00;69.40;;;;;;5103960;27;87091;-40
2023/03/31 10:56:55;;;;;;;;;;;10.00;69.40;;;;;;5104038;27;87421;-40
2023/03/31 10:59:39;;;;;;;;;;;10.00;69.40;;;;;;5099442;27;89565;-40
2023/03/31 11:02:16;;;;;;;;;;;10.00;69.40;;;;;;5107155;27;86245;-40
2023/03/31 11:04:50;;;;;;;;;;;10.10;69.40;;;;;;5101430;27;87952;-40
2023/03/31 11:07:28;;;;;;;;;;;10.10;69.40;;;;;;5103963;27;87065;-40
2023/03/31 11:10:05;;;;;;;;;;;10.10;69.50;;;;;;5100907;27;88522;-40
2023/03/31 11:12:40;;;;;;;;;;;10.10;69.40;;;;;;5095114;27;89689;-40
2023/03/31 11:15:23;;;;;;;;;;;10.20;69.50;;;;;;5103363;27;87469;-40
2023/03/31 11:17:58;;;;;;;;;;;10.10;69.60;;;;;;5100434;27;88382;-40
2023/03/31 11:20:42;;;;;;;;;;;10.20;69.40;;;;;;5102892;27;89559;-40
2023/03/31 11:23:14;;;;;;;;;;;10.20;69.50;;;;;;5104428;27;87113;-40
2023/03/31 11:26:01;;;;;;;;;;;10.20;69.60;;;;;;5102878;27;89176;-40
2023/03/31 11:28:54;;;;;;;;;;;10.20;69.50;;;;;;5103195;27;86460;-40
2023/03/31 11:31:37;;;;;;;;;;;10.20;69.60;;;;;;5103281;27;88274;-40
2023/03/31 11:34:05;;;;;;;;;;;10.30;69.70;;;;;;5102848;27;89474;-40
2023/03/31 11:36:37;;;;;;;;;;;10.20;69.80;;;;;;5102089;27;88139;-40
2023/03/31 11:39:09;;;;;;;;;;;10.20;70.00;;;;;;5103062;27;89722;-40
2023/03/31 11:41:40;;;;;;;;;;;10.20;70.00;;;;;;5103033;27;88641;-40
2023/03/31 11:44:11;;;;;;;;;;;10.20;69.80;;;;;;5099350;27;87093;-40
2023/03/31 11:46:55;;;;;;;;;;;10.30;69.90;;;;;;5105997;27;88657;-40
2023/03/31 11:49:25;;;;;;;;;;;10.30;69.70;;;;;;5099951;27;87574;-40
2023/03/31 11:51:55;;;;;;;;;;;10.40;69.70;;;;;;5103065;27;88729;-40
2023/03/31 11:54:33;;;;;;;;;;;10.40;69.80;;;;;;5103674;27;87341;-40
2023/03/31 11:57:01;;;;;;;;;;;10.40;69.80;;;;;;5102828;27;87151;-40
2023/03/31 11:59:28;;;;;;;;;;;10.40;69.80;;;;;;5102826;27;87569;-40
2023/03/31 12:02:23;;;;;;;;;;;10.40;69.70;;;;;;5097783;27;89545;-40
2023/03/31 12:04:50;;;;;;;;;;;10.50;69.60;;;;;;5088154;27;87151;-40
2023/03/31 12:07:55;;;;;;;;;;;10.50;69.70;;;;;;5102711;27;86982;-40
2023/03/31 12:10:36;;;;;;;;;;;10.50;69.90;;;;;;5041876;28;88337;-40
2023/03/31 12:13:20;;;;;;;;;;;10.50;69.80;;;;;;5038458;28;87442;-40
2023/03/31 12:16:24;;;;;;;;;;;10.50;69.80;;;;;;5082176;27;89431;-40
2023/03/31 12:19:07;;;;;;;;;;;10.50;69.90;;;;;;5038708;28;87677;-40
2023/03/31 12:21:34;;;;;;;;;;;10.60;69.80;;;;;;5038843;28;88696;-40
2023/03/31 12:23:59;;;;;;;;;;;10.60;69.70;;;;;;5074612;27;89473;-40
2023/03/31 12:26:31;;;;;;;;;;;10.60;69.80;;;;;;5098808;27;87133;-40
2023/03/31 12:28:59;;;;;;;;;;;10.60;69.80;;;;;;5101487;27;90250;-40
2023/03/31 12:31:25;;;;;;;;;;;10.60;69.80;;;;;;5102111;27;89278;-40
2023/03/31 12:33:57;;;;;;;;;;;10.60;69.80;;;;;;5105519;27;87122;-40
2023/03/31 12:36:22;;;;;;;;;;;10.60;70.00;;;;;;5098375;27;89423;-40
2023/03/31 12:39:08;;;;;;;;;;;10.70;70.00;;;;;;5102285;27;87057;-40
2023/03/31 12:41:33;;;;;;;;;;;10.70;69.90;;;;;;5094599;27;89027;-40
2023/03/31 12:44:05;;;;;;;;;;;10.70;70.50;;;;;;5102296;27;88065;-40
2023/03/31 12:46:49;;;;;;;;;;;10.70;69.80;;;;;;5102551;27;86262;-40
2023/03/31 12:49:31;;;;;;;;;;;10.70;69.90;;;;;;5100172;27;88261;-40
2023/03/31 12:52:10;;;;;;;;;;;10.80;69.70;;;;;;5094890;27;89506;-40
2023/03/31 12:54:48;;;;;;;;;;;10.80;69.90;;;;;;5101799;27;88593;-40
2023/03/31 12:57:19;;;;;;;;;;;10.70;69.60;;;;;;5104986;27;89825;-40
2023/03/31 12:59:45;;;;;;;;;;;10.80;69.80;;;;;;5102326;27;87057;-40
2023/03/31 13:02:14;;;;;;;;;;;10.80;69.70;;;;;;5101836;27;88893;-40
2023/03/31 13:04:40;;;;;;;;;;;10.90;69.70;;;;;;5101764;27;89697;-40
2023/03/31 13:07:26;;;;;;;;;;;10.90;69.30;;;;;;5102274;27;87130;-40
2023/03/31 13:09:56;;;;;;;;;;;10.90;69.60;;;;;;5090291;27;88612;-40
2023/03/31 13:12:22;;;;;;;;;;;10.90;69.70;;;;;;5103762;27;88789;-40
2023/03/31 13:14:58;;;;;;;;;;;10.90;69.70;;;;;;5104771;27;87179;-40
2023/03/31 13:17:23;;;;;;;;;;;10.90;69.60;;;;;;5105995;27;87597;-40
2023/03/31 13:19:49;;;;;;;;;;;10.90;70.00;;;;;;5104691;27;87944;-40
2023/03/31 13:22:34;;;;;;;;;;;11.00;69.80;;;;;;5105489;27;89621;-40
2023/03/31 13:25:19;;;;;;;;;;;11.00;69.60;;;;;;5102643;27;89418;-40
2023/03/31 13:27:48;;;;;;;;;;;10.90;70.00;;;;;;5102217;27;87129;-40
2023/03/31 13:30:33;;;;;;;;;;;11.00;70.00;;;;;;5105256;27;88758;-40
2023/03/31 13:33:22;;;;;;;;;;;11.00;70.00;;;;;;5092206;27;87231;-40
2023/03/31 13:36:03;;;;;;;;;;;11.00;70.10;;;;;;5074871;27;87100;-40
2023/03/31 13:38:46;;;;;;;;;;;11.00;70.30;;;;;;5101945;27;88864;-40
2023/03/31 13:41:22;;;;;;;;;;;11.00;70.30;;;;;;5107799;27;89931;-40
2023/03/31 13:44:06;;;;;;;;;;;11.00;70.40;;;;;;5102828;27;87154;-40
2023/03/31 13:46:41;;;;;;;;;;;11.10;70.30;;;;;;5100910;27;90150;-40
2023/03/31 13:49:24;;;;;;;;;;;11.10;70.40;;;;;;5105016;27;87131;-40
2023/03/31 13:51:57;;;;;;;;;;;11.10;70.40;;;;;;5102469;27;87862;-40
2023/03/31 13:54:22;;;;;;;;;;;11.10;70.50;;;;;;5104445;27;89843;-40
2023/03/31 13:56:51;;;;;;;;;;;11.10;70.50;;;;;;5104958;27;87509;-40
2023/03/31 13:59:22;;;;;;;;;;;11.10;70.60;;;;;;5104852;27;88175;-40
2023/03/31 14:01:57;;;;;;;;;;;11.20;70.80;;;;;;5104320;27;89662;-40
2023/03/31 14:04:23;;;;;;;;;;;11.20;71.60;;;;;;5105093;27;86246;-40
2023/03/31 14:06:52;;;;;;;;;;;11.20;71.10;;;;;;5104502;27;88737;-40
2023/03/31 14:09:24;;;;;;;;;;;11.20;71.20;;;;;;5104660;27;87125;-40
2023/03/31 14:11:49;;;;;;;;;;;11.20;71.30;;;;;;5104407;27;88765;-40
2023/03/31 14:14:16;;;;;;;;;;;11.20;71.50;;;;;;5104287;27;88112;-40
2023/03/31 14:16:51;;;;;;;;;;;11.20;71.30;;;;;;5100537;27;87658;-40
2023/03/31 14:19:16;;;;;;;;;;;11.30;71.20;;;;;;5104717;27;87495;-40
2023/03/31 14:21:48;;;;;;;;;;;11.30;71.20;;;;;;5104070;27;89340;-40
2023/03/31 14:24:17;;;;;;;;;;;11.30;71.50;;;;;;5104332;27;87296;-40
2023/03/31 14:27:00;;;;;;;;;;;11.30;71.50;;;;;;5107478;27;87577;-40
2023/03/31 14:29:46;;;;;;;;;;;11.40;71.50;;;;;;5102073;27;86380;-40
2023/03/31 14:32:30;;;;;;;;;;;11.40;71.50;;;;;;5100948;27;87467;-40
2023/03/31 14:34:59;;;;;;;;;;;11.40;71.60;;;;;;5100130;27;90185;-40
2023/03/31 14:37:26;;;;;;;;;;;11.40;71.50;;;;;;5102939;27;88167;-40
2023/03/31 14:39:55;;;;;;;;;;;11.50;71.40;;;;;;5104055;27;89684;-40
2023/03/31 14:42:25;;;;;;;;;;;11.50;71.30;;;;;;5103220;27;89763;-40
2023/03/31 14:44:55;;;;;;;;;;;11.50;71.40;;;;;;5096214;27;87446;-40